TimeCDT,TemperatureF,Dew PointF,Humidity,Sea Level PressureIn,VisibilityMPH,Wind Direction,Wind SpeedMPH,Gust SpeedMPH,PrecipitationIn,Events,Conditions,WindDirDegrees,DateUTC
12:53 AM,50.0,43.0,77,30.14,10.0,Calm,Calm,-,N/A,,Mostly Cloudy,0,2012-10-10 05:53:00
1:53 AM,55.0,43.0,64,30.17,10.0,North,8.1,-,N/A,,Overcast,10,2012-10-10 06:53:00
2:53 AM,46.9,41.0,80,30.19,10.0,Calm,Calm,-,N/A,,Clear,0,2012-10-10 07:53:00
3:53 AM,41.0,37.9,89,30.18,10.0,North,3.5,-,N/A,,Clear,350,2012-10-10 08:53:00
4:53 AM,45.0,37.0,74,30.22,10.0,Calm,Calm,-,N/A,,Clear,0,2012-10-10 09:53:00
5:53 AM,39.9,35.1,83,30.24,10.0,Calm,Calm,-,N/A,,Clear,0,2012-10-10 10:53:00
6:53 AM,37.0,34.0,89,30.26,10.0,Calm,Calm,-,N/A,,Clear,0,2012-10-10 11:53:00
7:53 AM,37.0,35.1,93,30.27,10.0,Calm,Calm,-,N/A,,Clear,0,2012-10-10 12:53:00
8:53 AM,45.0,37.9,76,30.29,10.0,Calm,Calm,-,N/A,,Clear,0,2012-10-10 13:53:00
9:53 AM,53.1,37.0,55,30.30,10.0,East,3.5,-,N/A,,Clear,90,2012-10-10 14:53:00
10:53 AM,59.0,35.1,41,30.30,10.0,Variable,4.6,-,N/A,,Clear,0,2012-10-10 15:53:00
11:53 AM,62.1,28.9,29,30.30,10.0,NE,5.8,-,N/A,,Clear,50,2012-10-10 16:53:00
12:53 PM,64.0,30.9,29,30.28,10.0,ENE,5.8,-,N/A,,Clear,60,2012-10-10 17:53:00
1:05 PM,66.2,30.2,26,30.29,10.0,Variable,5.8,-,N/A,,Partly Cloudy,0,2012-10-10 18:05:00
1:53 PM,66.9,30.0,25,30.24,10.0,East,12.7,-,N/A,,Clear,80,2012-10-10 18:53:00
2:53 PM,66.0,28.9,25,30.20,10.0,Calm,Calm,-,N/A,,Clear,0,2012-10-10 19:53:00
3:53 PM,66.9,28.9,24,30.19,10.0,ESE,4.6,-,N/A,,Clear,110,2012-10-10 20:53:00
4:53 PM,66.9,30.0,25,30.17,10.0,Variable,5.8,-,N/A,,Clear,0,2012-10-10 21:53:00
5:53 PM,64.9,30.9,28,30.16,10.0,East,6.9,-,N/A,,Clear,80,2012-10-10 22:53:00
6:53 PM,60.1,30.9,33,30.16,10.0,East,3.5,-,N/A,,Clear,100,2012-10-10 23:53:00
7:53 PM,50.0,33.1,52,30.16,10.0,Calm,Calm,-,N/A,,Clear,0,2012-10-11 00:53:00
8:53 PM,46.0,34.0,63,30.15,10.0,Calm,Calm,-,N/A,,Clear,0,2012-10-11 01:53:00
9:53 PM,45.0,35.1,68,30.16,10.0,Calm,Calm,-,N/A,,Clear,0,2012-10-11 02:53:00
10:53 PM,48.9,37.9,66,30.15,10.0,Calm,Calm,-,N/A,,Overcast,0,2012-10-11 03:53:00
11:53 PM,52.0,39.0,61,30.14,10.0,Calm,Calm,-,N/A,,Overcast,0,2012-10-11 04:53:00